Scf Explorer — WDE2863 — position and weather

sailwx.info

Track history (hours):
 
Tides and Currents Weather Stations Pressure Air Temp Water Temp Dewpoint Dewpoint Depression Visibility Wind Speed Wind Dir Waves Ship Positions

Scf Explorer

Owner: SCF Waxler Marine LLC, St Rose, LA. More information available from US FCC via Universal Licensing System and Coast Guard Vessel Documentation Center.

Last reported at 2016-Feb-13 20:33 UTC. Time now 2016-Feb-13 21:31 UTC.
Position N 29°37' W 095°01'.

Length 35 m; draft 2.3 m.

Type: Ship (hazmat cat B). MMSI: 367330620.

Date/timePositionNaut miles runAvg speedWind from/ knotsBaromVisibWave heightAir tempDewpointWater temp
2016-Feb-13 20:33N 29°37' W 095°01'0 0.0
2016-Feb-13 19:33N 29°37' W 095°01'0 0.0
2016-Feb-13 18:33N 29°37' W 095°01'0 0.0
2016-Feb-13 17:33N 29°37' W 095°01'2 2.0
2016-Feb-13 16:33N 29°37' W 094°59'5 5.3
2016-Feb-13 15:33N 29°42' W 095°00'6 5.1
2016-Feb-13 14:26N 29°45' W 095°06'7 3.4
2016-Feb-13 12:31N 29°44' W 095°13'0 0.0
2016-Feb-13 06:17N 29°44' W 095°13'0 0.0
2016-Feb-13 04:30N 29°44' W 095°13'0 0.0
2016-Feb-13 03:28N 29°44' W 095°13'0 0.0
2016-Feb-13 02:33N 29°44' W 095°13'0 0.0
2016-Feb-13 01:33N 29°44' W 095°13'0 0.0
2016-Feb-13 00:32N 29°44' W 095°13'0 0.0
2016-Feb-12 22:33N 29°44' W 095°13'0 0.0
2016-Feb-12 19:18N 29°44' W 095°13'0 0.0
2016-Feb-12 18:28N 29°44' W 095°13'0 0.0
2016-Feb-12 17:30N 29°44' W 095°13'0 0.0
2016-Feb-12 16:20N 29°44' W 095°13'0 0.5
2016-Feb-12 15:16N 29°44' W 095°14'0 0.0
2016-Feb-12 14:22N 29°44' W 095°14'0 0.0
2016-Feb-12 13:30N 29°44' W 095°14'0 0.0
2016-Feb-12 12:24N 29°44' W 095°14'0 0.0
2016-Feb-12 11:19N 29°44' W 095°14'0 0.0
2016-Feb-12 09:32N 29°44' W 095°14'0 0.0
2016-Feb-12 07:21N 29°44' W 095°14'0 0.0
2016-Feb-12 05:17N 29°44' W 095°14'4 2.9
2016-Feb-12 04:04N 29°45' W 095°10'2 4.8
2016-Feb-12 03:33N 29°44' W 095°07'4 3.0
2016-Feb-12 02:03N 29°47' W 095°04'0 0.0
2016-Feb-12 01:33N 29°47' W 095°04'0 0.0
2016-Feb-11 08:24N 29°47' W 095°04'0 0.0
2016-Feb-11 07:33N 29°47' W 095°04'0 0.0
2016-Feb-11 06:33N 29°47' W 095°04'0 0.0
2016-Feb-11 05:31N 29°47' W 095°04'0 0.2
2016-Feb-11 04:04N 29°47' W 095°04'1 2.0
2016-Feb-11 03:33N 29°46' W 095°05'2 2.4
2016-Feb-11 02:33N 29°44' W 095°03'5 5.4
2016-Feb-11 01:33N 29°41' W 094°59'8 7.9
2016-Feb-11 00:33N 29°33' W 094°55'  
Track history (hours):
 
Tides and Currents Weather Stations Pressure Air Temp Water Temp Dewpoint Dewpoint Depression Visibility Wind Speed Wind Dir Waves Ship Positions

Scf Explorer

Owner: SCF Waxler Marine LLC, St Rose, LA. More information available from US FCC via Universal Licensing System and Coast Guard Vessel Documentation Center.

Last reported at 2016-Feb-13 20:33 UTC. Time now 2016-Feb-13 21:31 UTC.
Position N 29°37' W 095°01'.

Length 35 m; draft 2.3 m.

Type: Ship (hazmat cat B). MMSI: 367330620.

Date/timePositionNaut miles runAvg speedWind from/ knotsBaromVisibWave heightAir tempDewpointWater temp
2016-Feb-13 20:33N 29°37' W 095°01'0 0.0
2016-Feb-13 19:33N 29°37' W 095°01'0 0.0
2016-Feb-13 18:33N 29°37' W 095°01'0 0.0
2016-Feb-13 17:33N 29°37' W 095°01'2 2.0
2016-Feb-13 16:33N 29°37' W 094°59'5 5.3
2016-Feb-13 15:33N 29°42' W 095°00'6 5.1
2016-Feb-13 14:26N 29°45' W 095°06'7 3.4
2016-Feb-13 12:31N 29°44' W 095°13'0 0.0
2016-Feb-13 06:17N 29°44' W 095°13'0 0.0
2016-Feb-13 04:30N 29°44' W 095°13'0 0.0
2016-Feb-13 03:28N 29°44' W 095°13'0 0.0
2016-Feb-13 02:33N 29°44' W 095°13'0 0.0
2016-Feb-13 01:33N 29°44' W 095°13'0 0.0
2016-Feb-13 00:32N 29°44' W 095°13'0 0.0
2016-Feb-12 22:33N 29°44' W 095°13'0 0.0
2016-Feb-12 19:18N 29°44' W 095°13'0 0.0
2016-Feb-12 18:28N 29°44' W 095°13'0 0.0
2016-Feb-12 17:30N 29°44' W 095°13'0 0.0
2016-Feb-12 16:20N 29°44' W 095°13'0 0.5
2016-Feb-12 15:16N 29°44' W 095°14'0 0.0
2016-Feb-12 14:22N 29°44' W 095°14'0 0.0
2016-Feb-12 13:30N 29°44' W 095°14'0 0.0
2016-Feb-12 12:24N 29°44' W 095°14'0 0.0
2016-Feb-12 11:19N 29°44' W 095°14'0 0.0
2016-Feb-12 09:32N 29°44' W 095°14'0 0.0
2016-Feb-12 07:21N 29°44' W 095°14'0 0.0
2016-Feb-12 05:17N 29°44' W 095°14'4 2.9
2016-Feb-12 04:04N 29°45' W 095°10'2 4.8
2016-Feb-12 03:33N 29°44' W 095°07'4 3.0
2016-Feb-12 02:03N 29°47' W 095°04'0 0.0
2016-Feb-12 01:33N 29°47' W 095°04'0 0.0
2016-Feb-11 08:24N 29°47' W 095°04'0 0.0
2016-Feb-11 07:33N 29°47' W 095°04'0 0.0
2016-Feb-11 06:33N 29°47' W 095°04'0 0.0
2016-Feb-11 05:31N 29°47' W 095°04'0 0.2
2016-Feb-11 04:04N 29°47' W 095°04'1 2.0
2016-Feb-11 03:33N 29°46' W 095°05'2 2.4
2016-Feb-11 02:33N 29°44' W 095°03'5 5.4
2016-Feb-11 01:33N 29°41' W 094°59'8 7.9
2016-Feb-11 00:33N 29°33' W 094°55'  

Dump ship's entire track history